JZA108 CYOW-CYHZ
Flight info
| Callsign | JZA108 |
|---|---|
| Flight time | 1h 20m |
| Altitude | 35000 |
| Route | AVVON Q947 LAFIT DCT RABIK Q951 ANTOV DCT EBONY FUNDY5 |
| Aircraft | CRJ9/M-SDFGIRWY/S |
Departure
| Time | 2026-05-04 16:21 |
|---|---|
| Airport | Ottawa Macdonald-Cartier International Airport (CYOW) |
Arrival
| Time | 2026-05-04 17:42 |
|---|---|
| Airport | Halifax / Stanfield International Airport (CYHZ) |
| Time | Latitude | Longitude | Altitude | Speed | Heading |
|---|---|---|---|---|---|
| 2026-05-04 15:34 | 45.32232 | -75.66938 | 375 ft | 0 kts | 36° |
| 2026-05-04 16:08 | 45.32189 | -75.66983 | 375 ft | 4 kts | 36° |
| 2026-05-04 16:09 | 45.32153 | -75.67021 | 375 ft | 1 kts | 36° |
| 2026-05-04 16:12 | 45.32148 | -75.66984 | 375 ft | 5 kts | 125° |
| 2026-05-04 16:13 | 45.32084 | -75.66858 | 375 ft | 9 kts | 126° |
| 2026-05-04 16:13 | 45.32010 | -75.66722 | 375 ft | 9 kts | 127° |
| 2026-05-04 16:14 | 45.31937 | -75.66579 | 375 ft | 9 kts | 126° |
| 2026-05-04 16:14 | 45.31879 | -75.66425 | 375 ft | 9 kts | 78° |
| 2026-05-04 16:15 | 45.31975 | -75.66202 | 375 ft | 9 kts | 56° |
| 2026-05-04 16:16 | 45.32050 | -75.66032 | 373 ft | 11 kts | 57° |
| 2026-05-04 16:16 | 45.32182 | -75.65741 | 374 ft | 13 kts | 57° |
| 2026-05-04 16:17 | 45.32280 | -75.65522 | 374 ft | 14 kts | 58° |
| 2026-05-04 16:18 | 45.32452 | -75.65139 | 372 ft | 17 kts | 58° |
| 2026-05-04 16:18 | 45.32517 | -75.64995 | 369 ft | 18 kts | 58° |
| 2026-05-04 16:19 | 45.32568 | -75.64622 | 367 ft | 12 kts | 111° |
| 2026-05-04 16:19 | 45.32472 | -75.64590 | 367 ft | 7 kts | 233° |
| 2026-05-04 16:20 | 45.32450 | -75.64638 | 367 ft | 13 kts | 237° |
| 2026-05-04 16:20 | 45.31889 | -75.65886 | 367 ft | 131 kts | 237° |
| 2026-05-04 16:21 | 45.30046 | -75.69960 | 1603 ft | 180 kts | 236° |
| 2026-05-04 16:22 | 45.28480 | -75.73332 | 2408 ft | 227 kts | 238° |
| 2026-05-04 16:22 | 45.25810 | -75.79337 | 4605 ft | 249 kts | 238° |
| 2026-05-04 16:23 | 45.22816 | -75.85153 | 7333 ft | 251 kts | 216° |
| 2026-05-04 16:24 | 45.17244 | -75.80457 | 10049 ft | 310 kts | 96° |
| 2026-05-04 16:25 | 45.17003 | -75.74228 | 11134 ft | 329 kts | 90° |
| 2026-05-04 16:26 | 45.16972 | -75.59944 | 12404 ft | 394 kts | 88° |
| 2026-05-04 16:26 | 45.16985 | -75.47738 | 13615 ft | 426 kts | 88° |
| 2026-05-04 16:27 | 45.17004 | -75.39269 | 14757 ft | 433 kts | 88° |
| 2026-05-04 16:28 | 45.17061 | -75.26297 | 16348 ft | 444 kts | 87° |
| 2026-05-04 16:28 | 45.17172 | -75.13075 | 17796 ft | 454 kts | 86° |
| 2026-05-04 16:29 | 45.18470 | -74.95208 | 19513 ft | 458 kts | 69° |
| 2026-05-04 16:30 | 45.21369 | -74.82267 | 20675 ft | 465 kts | 67° |
| 2026-05-04 16:31 | 45.23388 | -74.73521 | 21400 ft | 469 kts | 66° |
| 2026-05-04 16:31 | 45.26263 | -74.60110 | 22405 ft | 477 kts | 68° |
| 2026-05-04 16:32 | 45.29102 | -74.46530 | 23288 ft | 484 kts | 67° |
| 2026-05-04 16:33 | 45.30895 | -74.37267 | 23851 ft | 495 kts | 77° |
| 2026-05-04 16:33 | 45.30931 | -74.27331 | 24366 ft | 508 kts | 88° |
| 2026-05-04 16:34 | 45.30755 | -74.17285 | 24822 ft | 510 kts | 84° |
| 2026-05-04 16:34 | 45.30800 | -74.12307 | 25056 ft | 511 kts | 84° |
| 2026-05-04 16:35 | 45.30886 | -73.97092 | 25827 ft | 514 kts | 85° |
| 2026-05-04 16:35 | 45.30856 | -73.81888 | 26676 ft | 513 kts | 86° |
| 2026-05-04 16:36 | 45.30847 | -73.76823 | 26966 ft | 512 kts | 86° |
| 2026-05-04 16:36 | 45.30811 | -73.66722 | 27521 ft | 511 kts | 86° |
| 2026-05-04 16:37 | 45.30774 | -73.56706 | 28048 ft | 510 kts | 86° |
| 2026-05-04 16:37 | 45.30754 | -73.51667 | 28322 ft | 509 kts | 87° |
| 2026-05-04 16:37 | 45.30698 | -73.41637 | 28821 ft | 507 kts | 87° |
| 2026-05-04 16:38 | 45.30636 | -73.31617 | 29300 ft | 506 kts | 88° |
| 2026-05-04 16:39 | 45.30529 | -73.16722 | 29955 ft | 504 kts | 88° |
| 2026-05-04 16:39 | 45.30445 | -73.06767 | 30427 ft | 502 kts | 88° |
| 2026-05-04 16:40 | 45.30350 | -72.96869 | 30884 ft | 500 kts | 88° |
| 2026-05-04 16:40 | 45.30252 | -72.87000 | 31291 ft | 500 kts | 89° |
| 2026-05-04 16:41 | 45.30144 | -72.77220 | 31750 ft | 497 kts | 89° |
| 2026-05-04 16:41 | 45.29970 | -72.62515 | 32393 ft | 495 kts | 89° |
| 2026-05-04 16:42 | 45.30593 | -72.47906 | 32902 ft | 494 kts | 83° |
| 2026-05-04 16:43 | 45.31208 | -72.38209 | 33253 ft | 494 kts | 84° |
| 2026-05-04 16:43 | 45.31723 | -72.28564 | 33609 ft | 493 kts | 84° |
| 2026-05-04 16:43 | 45.31983 | -72.23705 | 33781 ft | 493 kts | 84° |
| 2026-05-04 16:44 | 45.32990 | -72.04302 | 34459 ft | 492 kts | 85° |
| 2026-05-04 16:45 | 45.33480 | -71.94666 | 34712 ft | 494 kts | 86° |
| 2026-05-04 16:46 | 45.35599 | -71.70363 | 34770 ft | 490 kts | 79° |
| 2026-05-04 16:47 | 45.37667 | -71.51589 | 34759 ft | 475 kts | 81° |
| 2026-05-04 16:48 | 45.39608 | -71.33277 | 34762 ft | 463 kts | 81° |
| 2026-05-04 16:49 | 45.41501 | -71.15142 | 34776 ft | 468 kts | 81° |
| 2026-05-04 16:50 | 45.42158 | -70.96664 | 34789 ft | 471 kts | 97° |
| 2026-05-04 16:51 | 45.40457 | -70.82893 | 34789 ft | 472 kts | 102° |
| 2026-05-04 16:52 | 45.38203 | -70.64538 | 34789 ft | 472 kts | 101° |
| 2026-05-04 16:53 | 45.36519 | -70.50757 | 34773 ft | 471 kts | 101° |
| 2026-05-04 16:54 | 45.34274 | -70.32565 | 34765 ft | 467 kts | 101° |
| 2026-05-04 16:55 | 45.30859 | -70.05359 | 34759 ft | 465 kts | 102° |
| 2026-05-04 16:56 | 45.27979 | -69.82866 | 34748 ft | 464 kts | 102° |
| 2026-05-04 16:57 | 45.26232 | -69.69369 | 34749 ft | 463 kts | 102° |
| 2026-05-04 16:58 | 45.23888 | -69.51494 | 34738 ft | 462 kts | 102° |
| 2026-05-04 17:00 | 45.20305 | -69.24572 | 34749 ft | 465 kts | 103° |
| 2026-05-04 17:01 | 45.17251 | -69.02011 | 34756 ft | 469 kts | 103° |
| 2026-05-04 17:02 | 45.14748 | -68.83796 | 34759 ft | 472 kts | 103° |
| 2026-05-04 17:03 | 45.12856 | -68.70152 | 34767 ft | 474 kts | 104° |
| 2026-05-04 17:03 | 45.10926 | -68.56396 | 34767 ft | 476 kts | 104° |
| 2026-05-04 17:04 | 45.08326 | -68.38031 | 34767 ft | 479 kts | 104° |
| 2026-05-04 17:05 | 45.05674 | -68.19534 | 34767 ft | 480 kts | 104° |
| 2026-05-04 17:06 | 45.03666 | -68.05669 | 34772 ft | 480 kts | 104° |
| 2026-05-04 17:07 | 45.01871 | -67.93378 | 34775 ft | 480 kts | 104° |
| 2026-05-04 17:07 | 45.00291 | -67.82652 | 34775 ft | 480 kts | 104° |
| 2026-05-04 17:08 | 44.98236 | -67.68809 | 34771 ft | 480 kts | 105° |
| 2026-05-04 17:09 | 44.96866 | -67.59643 | 34769 ft | 480 kts | 105° |
| 2026-05-04 17:09 | 44.95478 | -67.50417 | 34767 ft | 481 kts | 105° |
| 2026-05-04 17:10 | 44.91975 | -67.27347 | 34764 ft | 480 kts | 105° |
| 2026-05-04 17:11 | 44.90571 | -67.18209 | 34764 ft | 480 kts | 105° |
| 2026-05-04 17:11 | 44.90008 | -67.08825 | 34770 ft | 483 kts | 90° |
| 2026-05-04 17:12 | 44.90128 | -67.04093 | 34769 ft | 483 kts | 89° |
| 2026-05-04 17:13 | 44.90209 | -66.80481 | 34763 ft | 481 kts | 92° |
| 2026-05-04 17:14 | 44.90141 | -66.61726 | 34764 ft | 479 kts | 92° |
| 2026-05-04 17:15 | 44.90066 | -66.47639 | 34764 ft | 478 kts | 92° |
| 2026-05-04 17:16 | 44.89938 | -66.28956 | 34759 ft | 477 kts | 92° |
| 2026-05-04 17:17 | 44.89781 | -66.10250 | 34752 ft | 476 kts | 93° |
| 2026-05-04 17:18 | 44.89595 | -65.91653 | 34697 ft | 473 kts | 92° |
| 2026-05-04 17:18 | 44.89490 | -65.82275 | 33550 ft | 483 kts | 92° |
| 2026-05-04 17:19 | 44.89373 | -65.72807 | 32419 ft | 482 kts | 92° |
| 2026-05-04 17:19 | 44.89255 | -65.63366 | 31286 ft | 481 kts | 92° |
| 2026-05-04 17:20 | 44.89136 | -65.54019 | 30156 ft | 479 kts | 92° |
| 2026-05-04 17:20 | 44.88991 | -65.44681 | 29016 ft | 478 kts | 91° |
| 2026-05-04 17:20 | 44.88922 | -65.39989 | 28447 ft | 479 kts | 91° |
| 2026-05-04 17:21 | 44.88780 | -65.30614 | 27325 ft | 478 kts | 91° |
| 2026-05-04 17:21 | 44.88631 | -65.21295 | 26192 ft | 478 kts | 91° |
| 2026-05-04 17:22 | 44.88555 | -65.16628 | 25627 ft | 475 kts | 91° |
| 2026-05-04 17:22 | 44.88474 | -65.11994 | 25057 ft | 470 kts | 90° |
| 2026-05-04 17:23 | 44.88225 | -64.98398 | 23338 ft | 452 kts | 90° |
| 2026-05-04 17:23 | 44.88140 | -64.93982 | 22765 ft | 449 kts | 90° |
| 2026-05-04 17:23 | 44.87970 | -64.85255 | 21641 ft | 442 kts | 90° |
| 2026-05-04 17:24 | 44.87882 | -64.80995 | 21099 ft | 439 kts | 90° |
| 2026-05-04 17:24 | 44.87621 | -64.68236 | 19505 ft | 430 kts | 89° |
| 2026-05-04 17:25 | 44.87529 | -64.64040 | 18982 ft | 427 kts | 89° |
| 2026-05-04 17:25 | 44.87343 | -64.55734 | 17943 ft | 422 kts | 89° |
| 2026-05-04 17:26 | 44.87156 | -64.47520 | 16945 ft | 417 kts | 89° |
| 2026-05-04 17:26 | 44.86868 | -64.35505 | 15446 ft | 404 kts | 90° |
| 2026-05-04 17:27 | 44.86669 | -64.27677 | 14469 ft | 393 kts | 90° |
| 2026-05-04 17:27 | 44.86473 | -64.20093 | 13507 ft | 382 kts | 91° |
| 2026-05-04 17:28 | 44.85809 | -64.12838 | 12587 ft | 369 kts | 98° |
| 2026-05-04 17:29 | 44.84661 | -64.02551 | 11273 ft | 342 kts | 96° |
| 2026-05-04 17:29 | 44.83710 | -63.92865 | 10031 ft | 324 kts | 96° |
| 2026-05-04 17:30 | 44.82819 | -63.83734 | 8873 ft | 307 kts | 97° |
| 2026-05-04 17:31 | 44.82263 | -63.77951 | 8201 ft | 289 kts | 96° |
| 2026-05-04 17:31 | 44.81456 | -63.69831 | 7134 ft | 270 kts | 96° |
| 2026-05-04 17:32 | 44.80928 | -63.64627 | 6480 ft | 268 kts | 96° |
| 2026-05-04 17:33 | 44.80127 | -63.56932 | 5609 ft | 257 kts | 96° |
| 2026-05-04 17:33 | 44.79872 | -63.54470 | 5271 ft | 253 kts | 96° |
| 2026-05-04 17:34 | 44.77505 | -63.48144 | 4786 ft | 246 kts | 135° |
| 2026-05-04 17:34 | 44.76437 | -63.46300 | 4661 ft | 239 kts | 135° |
| 2026-05-04 17:35 | 44.73606 | -63.40803 | 4267 ft | 229 kts | 131° |
| 2026-05-04 17:35 | 44.72245 | -63.36789 | 3780 ft | 234 kts | 87° |
| 2026-05-04 17:35 | 44.72740 | -63.34716 | 3521 ft | 218 kts | 42° |
| 2026-05-04 17:36 | 44.73870 | -63.33598 | 3300 ft | 187 kts | 5° |
| 2026-05-04 17:36 | 44.75097 | -63.32960 | 3068 ft | 189 kts | 8° |
| 2026-05-04 17:36 | 44.76294 | -63.32226 | 2914 ft | 188 kts | 12° |
| 2026-05-04 17:36 | 44.77444 | -63.31353 | 2784 ft | 189 kts | 17° |
| 2026-05-04 17:37 | 44.78594 | -63.30858 | 2611 ft | 163 kts | 339° |
| 2026-05-04 17:37 | 44.79384 | -63.31653 | 2480 ft | 134 kts | 291° |
| 2026-05-04 17:37 | 44.79875 | -63.32769 | 2408 ft | 128 kts | 297° |
| 2026-05-04 17:37 | 44.80395 | -63.33746 | 2295 ft | 122 kts | 299° |
| 2026-05-04 17:38 | 44.80879 | -63.34685 | 2264 ft | 119 kts | 298° |
| 2026-05-04 17:38 | 44.81367 | -63.35649 | 2251 ft | 121 kts | 298° |
| 2026-05-04 17:38 | 44.81846 | -63.36604 | 2312 ft | 117 kts | 298° |
| 2026-05-04 17:38 | 44.82321 | -63.37539 | 2338 ft | 118 kts | 297° |
| 2026-05-04 17:39 | 44.83265 | -63.39433 | 2093 ft | 120 kts | 298° |
| 2026-05-04 17:39 | 44.83739 | -63.40404 | 1992 ft | 123 kts | 298° |
| 2026-05-04 17:39 | 44.84234 | -63.41391 | 1878 ft | 123 kts | 299° |
| 2026-05-04 17:40 | 44.84724 | -63.42374 | 1739 ft | 123 kts | 299° |
| 2026-05-04 17:40 | 44.85206 | -63.43367 | 1593 ft | 124 kts | 299° |
| 2026-05-04 17:40 | 44.85703 | -63.44376 | 1437 ft | 126 kts | 301° |
| 2026-05-04 17:40 | 44.86228 | -63.45367 | 1259 ft | 126 kts | 301° |
| 2026-05-04 17:41 | 44.86727 | -63.46381 | 1086 ft | 126 kts | 299° |
| 2026-05-04 17:41 | 44.87207 | -63.47406 | 948 ft | 123 kts | 300° |
| 2026-05-04 17:41 | 44.87690 | -63.48387 | 723 ft | 127 kts | 303° |
| 2026-05-04 17:41 | 44.88193 | -63.49417 | 511 ft | 128 kts | 305° |
| 2026-05-04 17:42 | 44.88687 | -63.50367 | 448 ft | 98 kts | 305° |
| 2026-05-04 17:42 | 44.88967 | -63.50931 | 447 ft | 37 kts | 305° |
| 2026-05-04 17:42 | 44.89061 | -63.51116 | 447 ft | 15 kts | 304° |
| 2026-05-04 17:42 | 44.89065 | -63.51218 | 448 ft | 8 kts | 232° |
| 2026-05-04 17:43 | 44.89045 | -63.51243 | 449 ft | 0 kts | 198° |
| 2026-05-04 17:43 | 44.89009 | -63.51280 | 449 ft | 11 kts | 220° |
| 2026-05-04 17:43 | 44.88958 | -63.51335 | 450 ft | 8 kts | 210° |
| 2026-05-04 17:43 | 44.88911 | -63.51323 | 450 ft | 7 kts | 153° |
| 2026-05-04 17:44 | 44.88860 | -63.51301 | 450 ft | 8 kts | 172° |
| 2026-05-04 17:44 | 44.88801 | -63.51288 | 450 ft | 9 kts | 168° |
| 2026-05-04 17:44 | 44.88739 | -63.51272 | 450 ft | 9 kts | 171° |
| 2026-05-04 17:44 | 44.88673 | -63.51257 | 450 ft | 10 kts | 170° |
| 2026-05-04 17:45 | 44.88605 | -63.51239 | 450 ft | 10 kts | 169° |
| 2026-05-04 17:45 | 44.88535 | -63.51222 | 450 ft | 10 kts | 170° |
| 2026-05-04 17:45 | 44.88477 | -63.51208 | 450 ft | 2 kts | 171° |
| 2026-05-04 17:45 | 44.88451 | -63.51204 | 450 ft | 6 kts | 180° |
| 2026-05-04 17:46 | 44.88397 | -63.51237 | 450 ft | 11 kts | 217° |
| 2026-05-04 17:46 | 44.88349 | -63.51292 | 450 ft | 7 kts | 219° |
| 2026-05-04 17:46 | 44.88317 | -63.51335 | 450 ft | 5 kts | 250° |
| 2026-05-04 17:46 | 44.88323 | -63.51381 | 450 ft | 5 kts | 300° |
| 2026-05-04 17:47 | 44.88343 | -63.51422 | 450 ft | 5 kts | 305° |
| 2026-05-04 17:47 | 44.88357 | -63.51452 | 450 ft | 2 kts | 305° |
| 2026-05-04 17:47 | 44.88364 | -63.51466 | 450 ft | 2 kts | 305° |
| 2026-05-04 17:47 | 44.88366 | -63.51469 | 450 ft | 0 kts | 305° |
| 2026-05-04 17:50 | 44.88366 | -63.51470 | 450 ft | 0 kts | 305° |